Time;durP1;ratioP1;P1;durP2;ratioP2;P2;SDS_P1;SDS_P2;PMS_P1;PMS_P2;Temp;Humidity;BMP_temperature;BMP_pressure;BME280_temperature;BME280_humidity;BME280_pressure;Samples;Min_cycle;Max_cycle;Signal;HPM_P1;HPM_P2
2022/07/08 00:01:09;;;;;;;;;;;;;;;28.06;46.10;100863.09;105208;1300;62762;-81
2022/07/08 00:03:35;;;;;;;;;;;;;;;28.05;46.17;100863.12;105247;1299;62052;-81
2022/07/08 00:06:00;;;;;;;;;;;;;;;28.06;46.03;100862.03;105228;1299;62110;-81
2022/07/08 00:08:27;;;;;;;;;;;;;;;28.05;46.19;100862.41;105165;1299;62110;-81
2022/07/08 00:10:53;;;;;;;;;;;;;;;28.05;46.16;100860.42;105251;1299;61970;-81
2022/07/08 00:13:18;;;;;;;;;;;;;;;28.05;46.23;100858.64;105253;1300;62094;-81
2022/07/08 00:15:44;;;;;;;;;;;;;;;28.05;46.32;100862.95;105284;1300;62208;-81
2022/07/08 00:18:09;;;;;;;;;;;;;;;28.05;46.20;100865.52;105227;1299;62050;-81
2022/07/08 00:20:34;;;;;;;;;;;;;;;28.05;46.26;100861.20;105258;1299;62332;-81
2022/07/08 00:23:00;;;;;;;;;;;;;;;28.04;46.30;100857.41;105245;1299;62062;-81
2022/07/08 00:25:25;;;;;;;;;;;;;;;28.04;46.22;100850.90;105187;1300;62037;-81
2022/07/08 00:27:51;;;;;;;;;;;;;;;28.04;46.05;100843.13;105216;1299;73280;-80
2022/07/08 00:30:16;;;;;;;;;;;;;;;28.04;46.23;100842.96;105234;1299;62280;-81
2022/07/08 00:32:42;;;;;;;;;;;;;;;28.04;46.10;100841.54;105238;1299;62302;-81
2022/07/08 00:35:07;;;;;;;;;;;;;;;28.04;46.00;100840.62;105211;1299;62074;-81
2022/07/08 00:37:33;;;;;;;;;;;;;;;28.04;46.26;100837.20;105265;1299;62056;-81
2022/07/08 00:39:58;;;;;;;;;;;;;;;28.04;46.24;100836.15;105187;1299;62078;-81
2022/07/08 00:42:23;;;;;;;;;;;;;;;28.03;46.05;100831.66;105210;1299;63324;-81
2022/07/08 00:44:49;;;;;;;;;;;;;;;28.04;46.23;100824.74;105149;1300;62247;-81
2022/07/08 00:47:15;;;;;;;;;;;;;;;28.04;46.30;100821.87;105150;1299;62082;-81
2022/07/08 00:49:41;;;;;;;;;;;;;;;28.04;46.06;100818.45;105159;1300;61985;-81
2022/07/08 00:52:06;;;;;;;;;;;;;;;28.03;46.41;100817.58;105188;1300;62078;-81
2022/07/08 00:54:32;;;;;;;;;;;;;;;28.03;46.23;100820.64;105205;1300;62171;-81
2022/07/08 00:56:58;;;;;;;;;;;;;;;28.03;46.32;100821.75;105226;1299;62094;-81
2022/07/08 00:59:24;;;;;;;;;;;;;;;28.03;46.42;100823.21;105198;1300;62075;-81
2022/07/08 01:01:49;;;;;;;;;;;;;;;28.03;46.30;100823.77;105135;1300;62057;-81
2022/07/08 01:04:15;;;;;;;;;;;;;;;28.03;46.23;100820.15;105107;1300;62104;-81
2022/07/08 01:06:41;;;;;;;;;;;;;;;28.03;46.23;100814.90;105225;1300;62190;-81
2022/07/08 01:09:06;;;;;;;;;;;;;;;28.03;46.28;100813.64;105203;1300;62057;-81
2022/07/08 01:11:32;;;;;;;;;;;;;;;28.02;46.12;100807.15;105208;1300;62175;-81
2022/07/08 01:13:58;;;;;;;;;;;;;;;28.02;46.38;100806.61;105200;1299;62073;-81
2022/07/08 01:16:23;;;;;;;;;;;;;;;28.03;46.33;100805.87;105180;1300;62068;-81
2022/07/08 01:18:49;;;;;;;;;;;;;;;28.02;46.52;100804.46;105242;1300;62090;-81
2022/07/08 01:21:15;;;;;;;;;;;;;;;28.02;46.44;100809.15;105191;1300;61921;-81
2022/07/08 01:23:40;;;;;;;;;;;;;;;28.02;46.52;100815.33;105209;1299;62207;-80
2022/07/08 01:26:08;;;;;;;;;;;;;;;28.02;46.32;100819.50;105247;1297;63295;-80
2022/07/08 01:28:33;;;;;;;;;;;;;;;28.02;46.27;100820.95;105259;1299;61960;-80
2022/07/08 01:30:58;;;;;;;;;;;;;;;28.02;46.42;100823.27;105236;1299;62089;-80
2022/07/08 01:33:24;;;;;;;;;;;;;;;28.02;46.30;100823.12;105202;1300;62041;-80
2022/07/08 01:35:50;;;;;;;;;;;;;;;28.02;46.30;100822.24;105180;1300;62104;-80
2022/07/08 01:38:16;;;;;;;;;;;;;;;28.02;46.26;100820.20;105269;1299;62090;-80
2022/07/08 01:40:41;;;;;;;;;;;;;;;28.02;46.30;100821.70;105177;1300;62046;-80
2022/07/08 01:43:07;;;;;;;;;;;;;;;28.02;46.37;100817.37;105247;1299;62214;-80
2022/07/08 01:45:33;;;;;;;;;;;;;;;28.02;46.21;100820.28;105201;1300;62081;-80
2022/07/08 01:47:59;;;;;;;;;;;;;;;28.02;46.32;100822.79;105147;1300;62074;-80
2022/07/08 01:50:24;;;;;;;;;;;;;;;28.01;46.32;100823.77;105183;1300;62069;-80
2022/07/08 01:52:50;;;;;;;;;;;;;;;28.02;46.20;100821.20;105234;1299;62114;-80
2022/07/08 01:55:15;;;;;;;;;;;;;;;28.01;46.42;100823.05;105249;1300;62093;-81
2022/07/08 01:57:41;;;;;;;;;;;;;;;28.01;46.30;100827.39;105158;1300;62190;-80
2022/07/08 02:00:07;;;;;;;;;;;;;;;28.01;46.22;100830.24;105239;1299;62078;-80
2022/07/08 02:02:32;;;;;;;;;;;;;;;28.01;46.28;100826.84;105159;1300;62114;-81
2022/07/08 02:04:58;;;;;;;;;;;;;;;28.00;46.33;100829.07;105227;1299;62066;-80
2022/07/08 02:07:23;;;;;;;;;;;;;;;28.01;46.18;100834.30;105263;1298;62152;-80
2022/07/08 02:09:49;;;;;;;;;;;;;;;28.00;46.40;100839.00;105178;1300;61964;-80
2022/07/08 02:12:20;;;;;;;;;;;;;;;28.00;46.32;100841.38;105227;1299;63272;-81
2022/07/08 02:14:50;;;;;;;;;;;;;;;28.01;46.41;100844.05;104993;1299;73690;-81
2022/07/08 02:17:16;;;;;;;;;;;;;;;28.00;46.39;100852.57;105240;1299;61953;-80
2022/07/08 02:19:41;;;;;;;;;;;;;;;28.01;46.64;100860.55;105240;1297;62149;-80
2022/07/08 02:22:08;;;;;;;;;;;;;;;28.00;46.33;100857.13;105232;1299;62153;-80
2022/07/08 02:24:34;;;;;;;;;;;;;;;28.00;46.14;100859.29;105168;1300;62025;-80
2022/07/08 02:26:59;;;;;;;;;;;;;;;28.00;46.34;100862.19;105133;1300;62068;-80
2022/07/08 02:29:24;;;;;;;;;;;;;;;28.00;46.24;100858.80;105166;1300;62062;-80
2022/07/08 02:31:50;;;;;;;;;;;;;;;27.99;46.18;100859.00;105231;1300;62162;-80
2022/07/08 02:34:15;;;;;;;;;;;;;;;27.99;46.18;100857.37;105219;1299;63336;-80
2022/07/08 02:36:41;;;;;;;;;;;;;;;27.99;46.27;100857.37;105152;1300;62255;-80
2022/07/08 02:39:06;;;;;;;;;;;;;;;27.99;46.53;100860.11;105234;1299;62008;-80
2022/07/08 02:41:32;;;;;;;;;;;;;;;27.99;46.25;100860.48;105134;1300;62219;-80
2022/07/08 02:43:57;;;;;;;;;;;;;;;27.99;46.29;100863.39;105290;1299;62076;-83
2022/07/08 02:46:23;;;;;;;;;;;;;;;27.98;46.36;100860.88;105226;1300;62075;-83
2022/07/08 02:48:49;;;;;;;;;;;;;;;27.99;46.49;100862.14;105177;1300;62119;-83
2022/07/08 02:51:14;;;;;;;;;;;;;;;27.98;46.34;100861.42;105234;1300;62286;-83
2022/07/08 02:53:40;;;;;;;;;;;;;;;27.98;46.65;100860.54;105227;1299;62088;-83
2022/07/08 02:56:05;;;;;;;;;;;;;;;27.99;46.45;100863.42;105217;1300;62190;-83
2022/07/08 02:58:31;;;;;;;;;;;;;;;27.99;46.53;100863.77;105188;1300;74383;-83
2022/07/08 03:00:58;;;;;;;;;;;;;;;27.99;46.36;100865.23;105155;1300;62033;-83
2022/07/08 03:03:24;;;;;;;;;;;;;;;27.98;46.38;100869.05;105183;1300;62076;-83
2022/07/08 03:05:49;;;;;;;;;;;;;;;27.99;46.41;100872.45;105210;1299;62066;-83
2022/07/08 03:08:14;;;;;;;;;;;;;;;27.99;46.41;100871.91;105244;1299;62196;-83
2022/07/08 03:10:40;;;;;;;;;;;;;;;27.99;46.30;100868.85;105282;1299;62247;-83
2022/07/08 03:13:05;;;;;;;;;;;;;;;27.99;46.29;100870.62;105192;1300;62094;-83
2022/07/08 03:15:31;;;;;;;;;;;;;;;27.99;46.60;100866.48;105189;1300;62762;-83
2022/07/08 03:17:56;;;;;;;;;;;;;;;27.99;46.34;100869.20;105248;1299;62099;-83
2022/07/08 03:20:22;;;;;;;;;;;;;;;27.99;46.40;100872.23;105164;1299;62170;-83
2022/07/08 03:22:47;;;;;;;;;;;;;;;27.99;46.32;100868.45;105166;1300;62103;-83
2022/07/08 03:25:13;;;;;;;;;;;;;;;27.99;46.22;100869.56;105219;1299;62158;-83
2022/07/08 03:27:38;;;;;;;;;;;;;;;27.99;46.31;100868.65;105238;1300;62090;-83
2022/07/08 03:30:04;;;;;;;;;;;;;;;27.99;46.33;100876.98;105216;1300;62078;-83
2022/07/08 03:32:30;;;;;;;;;;;;;;;27.99;46.42;100879.11;105194;1300;62022;-83
2022/07/08 03:34:55;;;;;;;;;;;;;;;27.99;46.40;100881.47;105226;1299;62069;-83
2022/07/08 03:37:21;;;;;;;;;;;;;;;27.99;46.44;100879.67;105193;1299;62094;-83
2022/07/08 03:39:46;;;;;;;;;;;;;;;27.99;46.30;100880.91;105221;1299;62122;-83
2022/07/08 03:42:12;;;;;;;;;;;;;;;27.99;46.23;100876.05;105195;1300;62168;-83
2022/07/08 03:44:37;;;;;;;;;;;;;;;27.99;46.49;100880.24;105258;1299;62033;-83
2022/07/08 03:47:03;;;;;;;;;;;;;;;27.99;46.63;100880.80;105220;1300;62215;-83
2022/07/08 03:49:28;;;;;;;;;;;;;;;27.98;46.40;100882.45;105270;1299;62081;-83
2022/07/08 03:51:54;;;;;;;;;;;;;;;27.98;46.34;100887.23;105259;1299;62050;-83
2022/07/08 03:54:19;;;;;;;;;;;;;;;27.96;46.44;100887.90;105175;1300;62033;-83
2022/07/08 03:56:45;;;;;;;;;;;;;;;27.94;46.30;100884.64;105212;1300;62249;-83
2022/07/08 03:59:10;;;;;;;;;;;;;;;27.93;46.23;100883.14;105255;1299;62081;-83
2022/07/08 04:01:36;;;;;;;;;;;;;;;27.91;46.38;100889.08;105200;1299;62107;-83
2022/07/08 04:04:01;;;;;;;;;;;;;;;27.90;46.18;100890.98;105275;1299;62062;-83
2022/07/08 04:06:26;;;;;;;;;;;;;;;27.89;46.01;100893.50;105268;1299;62762;-83
2022/07/08 04:08:52;;;;;;;;;;;;;;;27.87;46.14;100899.70;105274;1299;62085;-83
2022/07/08 04:11:17;;;;;;;;;;;;;;;27.84;45.88;100897.42;105277;1299;62081;-83
2022/07/08 04:13:43;;;;;;;;;;;;;;;27.82;45.98;100899.27;105186;1300;75789;-83
2022/07/08 04:16:12;;;;;;;;;;;;;;;27.78;45.93;100897.97;105212;1300;62083;-83
2022/07/08 04:18:38;;;;;;;;;;;;;;;27.75;45.98;100895.89;105239;1299;61973;-84
2022/07/08 04:21:05;;;;;;;;;;;;;;;27.72;45.96;100891.92;105250;1299;61976;-83
2022/07/08 04:23:30;;;;;;;;;;;;;;;27.69;45.94;100893.60;105256;1299;62177;-83
2022/07/08 04:25:56;;;;;;;;;;;;;;;27.66;45.85;100891.59;105261;1299;62218;-83
2022/07/08 04:28:21;;;;;;;;;;;;;;;27.64;45.92;100895.52;105180;1299;62058;-83
2022/07/08 04:30:47;;;;;;;;;;;;;;;27.63;45.82;100900.60;105235;1299;63246;-83
2022/07/08 04:33:12;;;;;;;;;;;;;;;27.60;45.97;100901.72;105235;1300;62081;-83
2022/07/08 04:35:37;;;;;;;;;;;;;;;27.59;45.93;100904.02;105194;1299;62136;-83
2022/07/08 04:38:03;;;;;;;;;;;;;;;27.57;45.77;100905.48;105271;1300;62084;-83
2022/07/08 04:40:28;;;;;;;;;;;;;;;27.55;45.67;100907.08;105201;1300;62190;-83
2022/07/08 04:42:54;;;;;;;;;;;;;;;27.54;45.92;100905.75;105273;1299;62091;-83
2022/07/08 04:45:20;;;;;;;;;;;;;;;27.53;45.82;100906.52;105315;1299;62091;-83
2022/07/08 04:47:46;;;;;;;;;;;;;;;27.54;45.82;100909.03;105186;1297;77049;-83
2022/07/08 04:50:11;;;;;;;;;;;;;;;27.53;45.72;100906.58;105238;1299;62060;-83
2022/07/08 04:52:37;;;;;;;;;;;;;;;27.52;45.52;100906.12;105172;1301;62206;-83
2022/07/08 04:55:02;;;;;;;;;;;;;;;27.52;45.86;100905.59;105197;1300;60124;-84
2022/07/08 04:57:32;;;;;;;;;;;;;;;27.52;45.50;100905.06;105252;1299;62047;-84
2022/07/08 05:00:00;;;;;;;;;;;;;;;27.51;45.85;100904.02;105161;1299;76553;-85
2022/07/08 05:02:26;;;;;;;;;;;;;;;27.52;45.59;100903.80;105207;1299;62540;-88
2022/07/08 05:04:51;;;;;;;;;;;;;;;27.52;45.70;100906.73;105217;1300;62251;-84
2022/07/08 05:07:17;;;;;;;;;;;;;;;27.52;45.39;100906.89;105238;1299;62171;-81
2022/07/08 05:09:42;;;;;;;;;;;;;;;27.51;45.47;100906.55;105198;1299;62170;-82
2022/07/08 05:12:08;;;;;;;;;;;;;;;27.51;45.34;100904.08;105243;1299;62086;-82
2022/07/08 05:14:33;;;;;;;;;;;;;;;27.51;45.33;100899.56;105289;1299;62177;-82
2022/07/08 05:16:59;;;;;;;;;;;;;;;27.52;45.38;100894.25;105186;1299;62171;-82
2022/07/08 05:19:24;;;;;;;;;;;;;;;27.51;45.36;100884.52;105144;1300;62068;-81
2022/07/08 05:21:50;;;;;;;;;;;;;;;27.51;45.19;100883.98;105131;1299;62286;-82
2022/07/08 05:24:15;;;;;;;;;;;;;;;27.50;45.10;100890.79;105237;1298;62069;-81
2022/07/08 05:26:41;;;;;;;;;;;;;;;27.49;44.92;100891.59;105221;1300;62267;-81
2022/07/08 05:29:07;;;;;;;;;;;;;;;27.49;45.05;100887.48;105170;1300;62111;-81
2022/07/08 05:31:32;;;;;;;;;;;;;;;27.49;45.19;100889.75;105252;1299;62187;-81
2022/07/08 05:33:58;;;;;;;;;;;;;;;27.49;44.80;100891.77;105226;1299;62014;-81
2022/07/08 05:36:23;;;;;;;;;;;;;;;27.49;44.81;100897.09;105276;1299;62193;-81
2022/07/08 05:38:49;;;;;;;;;;;;;;;27.48;44.90;100899.83;105270;1300;62085;-81
2022/07/08 05:41:14;;;;;;;;;;;;;;;27.45;44.79;100897.48;105205;1300;62094;-81
2022/07/08 05:43:40;;;;;;;;;;;;;;;27.44;44.85;100897.35;105259;1299;62052;-81
2022/07/08 05:46:05;;;;;;;;;;;;;;;27.43;44.89;100895.41;105244;1299;62073;-81
2022/07/08 05:48:31;;;;;;;;;;;;;;;27.43;44.81;100897.91;105276;1299;62355;-81
2022/07/08 05:50:56;;;;;;;;;;;;;;;27.43;44.70;100900.29;105139;1302;60161;-82
2022/07/08 05:53:22;;;;;;;;;;;;;;;27.44;44.44;100900.42;104915;1302;61953;-82
2022/07/08 05:55:47;;;;;;;;;;;;;;;27.42;44.59;100902.17;105187;1300;62077;-82
2022/07/08 05:58:13;;;;;;;;;;;;;;;27.40;44.48;100902.27;104940;1300;62084;-81
2022/07/08 06:00:38;;;;;;;;;;;;;;;27.36;44.68;100901.12;105067;1300;62205;-81
2022/07/08 06:03:05;;;;;;;;;;;;;;;27.36;44.59;100905.00;105103;1300;62214;-81
2022/07/08 06:05:33;;;;;;;;;;;;;;;27.35;44.47;100902.17;105149;1300;62213;-83
2022/07/08 06:07:59;;;;;;;;;;;;;;;27.29;44.45;100900.23;105180;1299;72033;-83
2022/07/08 06:10:26;;;;;;;;;;;;;;;27.27;44.44;100904.73;105185;1298;64541;-83
2022/07/08 06:12:53;;;;;;;;;;;;;;;27.27;44.65;100902.91;105125;1299;62165;-84
2022/07/08 06:15:19;;;;;;;;;;;;;;;27.29;44.54;100899.34;105053;1302;61956;-81
2022/07/08 06:17:44;;;;;;;;;;;;;;;27.31;44.49;100900.59;105179;1299;62232;-81
2022/07/08 06:20:11;;;;;;;;;;;;;;;27.32;44.52;100898.99;105098;1302;62082;-81
2022/07/08 06:22:37;;;;;;;;;;;;;;;27.28;44.36;100898.48;105127;1302;61936;-82
2022/07/08 06:25:03;;;;;;;;;;;;;;;27.24;44.59;100899.21;105194;1299;62095;-81
2022/07/08 06:27:29;;;;;;;;;;;;;;;27.17;44.49;100897.94;104754;1302;431822;-81
2022/07/08 06:29:54;;;;;;;;;;;;;;;27.11;44.47;100896.48;105176;1299;62055;-81
2022/07/08 06:32:20;;;;;;;;;;;;;;;27.11;44.56;100893.95;105257;1298;62207;-81
2022/07/08 06:34:46;;;;;;;;;;;;;;;27.14;44.61;100886.50;105172;1299;62046;-81
2022/07/08 06:37:13;;;;;;;;;;;;;;;27.16;44.43;100885.41;105122;1300;61979;-81
2022/07/08 06:39:38;;;;;;;;;;;;;;;27.17;44.33;100886.52;105192;1299;62170;-81
2022/07/08 06:42:05;;;;;;;;;;;;;;;27.20;44.59;100882.09;105070;1302;62190;-81
2022/07/08 06:44:31;;;;;;;;;;;;;;;27.22;44.14;100882.95;105180;1299;62046;-81
2022/07/08 06:46:56;;;;;;;;;;;;;;;27.25;44.23;100882.70;105099;1300;62260;-81
2022/07/08 06:49:21;;;;;;;;;;;;;;;27.27;44.09;100880.71;105202;1299;62149;-82
2022/07/08 06:51:47;;;;;;;;;;;;;;;27.26;44.08;100880.01;105146;1300;60122;-81
2022/07/08 06:56:56;;;;;;;;;;;;;;;27.22;44.18;100880.74;105193;1299;62082;-81
2022/07/08 06:59:22;;;;;;;;;;;;;;;27.20;44.01;100883.52;105099;1300;62161;-81
2022/07/08 07:01:47;;;;;;;;;;;;;;;27.18;44.01;100886.66;105138;1300;62034;-81
2022/07/08 07:04:13;;;;;;;;;;;;;;;27.17;44.02;100883.61;105189;1299;62162;-81
2022/07/08 07:06:38;;;;;;;;;;;;;;;27.18;43.94;100885.55;105178;1301;62088;-82
2022/07/08 07:09:04;;;;;;;;;;;;;;;27.13;43.73;100884.56;105152;1301;62088;-82
2022/07/08 07:11:29;;;;;;;;;;;;;;;27.12;43.90;100878.38;105090;1302;62193;-82
2022/07/08 07:13:55;;;;;;;;;;;;;;;27.12;43.78;100881.96;105154;1299;62120;-81
2022/07/08 07:16:20;;;;;;;;;;;;;;;27.08;43.44;100876.19;105133;1302;62177;-82
2022/07/08 07:18:46;;;;;;;;;;;;;;;27.08;43.75;100876.20;105195;1301;62094;-81
2022/07/08 07:21:11;;;;;;;;;;;;;;;27.12;43.51;100879.27;105215;1299;62053;-82
2022/07/08 07:23:37;;;;;;;;;;;;;;;27.12;43.24;100874.90;105129;1302;61951;-81
2022/07/08 07:26:03;;;;;;;;;;;;;;;27.13;43.11;100873.77;104728;1302;82568;-81
2022/07/08 07:28:28;;;;;;;;;;;;;;;27.16;42.98;100870.75;104858;1302;62259;-81
2022/07/08 07:30:54;;;;;;;;;;;;;;;27.15;42.87;100872.27;104993;1300;62138;-81
2022/07/08 07:33:19;;;;;;;;;;;;;;;27.14;42.62;100872.92;105126;1302;62059;-81
2022/07/08 07:35:45;;;;;;;;;;;;;;;27.13;42.15;100875.02;105135;1299;62113;-81
2022/07/08 07:38:10;;;;;;;;;;;;;;;27.14;41.98;100877.23;105007;1301;62193;-81
2022/07/08 07:40:36;;;;;;;;;;;;;;;27.18;42.38;100872.55;104938;1302;62100;-81
2022/07/08 07:43:01;;;;;;;;;;;;;;;27.22;42.37;100871.41;105093;1302;62786;-83
2022/07/08 07:45:27;;;;;;;;;;;;;;;27.25;42.00;100872.73;105093;1301;62116;-83
2022/07/08 07:47:52;;;;;;;;;;;;;;;27.25;41.79;100866.01;104908;1299;62115;-83
2022/07/08 07:50:17;;;;;;;;;;;;;;;27.29;41.67;100870.61;104972;1300;62048;-82
2022/07/08 07:52:43;;;;;;;;;;;;;;;27.32;41.67;100868.52;104955;1298;62093;-82
2022/07/08 07:55:11;;;;;;;;;;;;;;;27.33;41.46;100870.85;105047;1302;59549;-82
2022/07/08 07:57:37;;;;;;;;;;;;;;;27.30;40.38;100870.87;104978;1302;62210;-82
2022/07/08 08:00:04;;;;;;;;;;;;;;;27.22;40.02;100866.83;104854;1301;59781;-81
2022/07/08 08:02:29;;;;;;;;;;;;;;;27.21;40.01;100868.39;104849;1302;62203;-80
2022/07/08 08:04:55;;;;;;;;;;;;;;;27.23;39.96;100868.05;104978;1302;62066;-81
2022/07/08 08:07:20;;;;;;;;;;;;;;;27.28;40.23;100868.14;105107;1301;63103;-81
2022/07/08 08:09:46;;;;;;;;;;;;;;;27.31;40.21;100872.50;105050;1301;61972;-81
2022/07/08 08:12:12;;;;;;;;;;;;;;;27.33;40.10;100868.06;105051;1299;62203;-81
2022/07/08 08:14:37;;;;;;;;;;;;;;;27.36;40.16;100859.46;105135;1299;62065;-81
2022/07/08 08:17:03;;;;;;;;;;;;;;;27.37;40.42;100857.36;105048;1302;62108;-81
2022/07/08 08:19:28;;;;;;;;;;;;;;;27.36;39.93;100860.84;104727;1301;62201;-81
2022/07/08 08:21:54;;;;;;;;;;;;;;;27.31;39.87;100857.88;104890;1299;62097;-81
2022/07/08 08:24:20;;;;;;;;;;;;;;;27.30;39.90;100859.41;105050;1299;62142;-81
2022/07/08 08:26:46;;;;;;;;;;;;;;;27.29;39.61;100857.42;104888;1300;73982;-81
2022/07/08 08:29:12;;;;;;;;;;;;;;;27.30;39.50;100850.64;105042;1302;76710;-81
2022/07/08 08:31:38;;;;;;;;;;;;;;;27.29;39.53;100844.88;105060;1300;59536;-81
2022/07/08 08:34:03;;;;;;;;;;;;;;;27.33;39.59;100844.38;104749;1302;62168;-81
2022/07/08 08:36:29;;;;;;;;;;;;;;;27.37;39.65;100844.54;104977;1299;62139;-81
2022/07/08 08:38:54;;;;;;;;;;;;;;;27.36;39.42;100843.92;104902;1300;62633;-81
2022/07/08 08:41:21;;;;;;;;;;;;;;;27.33;39.31;100840.53;104966;1299;61944;-81
2022/07/08 08:43:46;;;;;;;;;;;;;;;27.35;39.35;100841.25;104856;1301;62187;-81
2022/07/08 08:46:11;;;;;;;;;;;;;;;27.35;39.24;100840.33;105111;1301;62092;-81
2022/07/08 08:48:38;;;;;;;;;;;;;;;27.32;38.84;100837.02;105182;1299;62052;-81
2022/07/08 08:51:06;;;;;;;;;;;;;;;27.32;38.92;100837.02;105107;1302;62077;-82
2022/07/08 08:53:40;;;;;;;;;;;;;;;27.34;38.97;100840.46;105188;1299;62085;-82
2022/07/08 08:56:10;;;;;;;;;;;;;;;27.37;38.97;100835.54;105189;1299;61969;-81
2022/07/08 08:58:58;;;;;;;;;;;;;;;;;;;;;
2022/07/08 09:01:32;;;;;;;;;;;;;;;27.41;39.05;100836.31;105079;1299;75853;-81
2022/07/08 09:03:59;;;;;;;;;;;;;;;27.39;38.82;100833.85;104830;1302;62193;-82
2022/07/08 09:06:24;;;;;;;;;;;;;;;27.37;38.63;100840.00;105199;1299;62065;-81
2022/07/08 09:08:51;;;;;;;;;;;;;;;27.37;38.89;100826.25;105082;1302;62173;-81
2022/07/08 09:11:18;;;;;;;;;;;;;;;27.39;38.79;100827.88;105048;1299;62128;-82
2022/07/08 09:13:44;;;;;;;;;;;;;;;27.38;38.68;100827.05;105030;1299;62389;-82
2022/07/08 09:16:09;;;;;;;;;;;;;;;27.37;38.79;100819.80;105029;1299;62062;-81
2022/07/08 09:18:35;;;;;;;;;;;;;;;27.38;38.90;100814.42;105034;1299;62180;-82
2022/07/08 09:21:01;;;;;;;;;;;;;;;27.40;38.69;100816.24;105022;1302;62088;-82
2022/07/08 09:23:29;;;;;;;;;;;;;;;27.41;38.71;100813.20;104904;1301;62107;-82
2022/07/08 09:25:55;;;;;;;;;;;;;;;27.44;39.05;100812.21;105120;1299;62056;-81
2022/07/08 09:28:31;;;;;;;;;;;;;;;27.48;38.87;100815.27;105071;1300;62120;-83
2022/07/08 09:30:57;;;;;;;;;;;;;;;27.48;38.68;100820.98;105138;1300;75898;-83
2022/07/08 09:33:25;;;;;;;;;;;;;;;27.47;38.84;100816.99;105189;1299;62082;-82
2022/07/08 09:35:51;;;;;;;;;;;;;;;27.47;38.88;100812.80;105159;1299;61959;-82
2022/07/08 09:38:20;;;;;;;;;;;;;;;27.49;38.90;100807.54;105076;1302;62042;-82
2022/07/08 09:40:58;;;;;;;;;;;;;;;27.52;38.66;100809.98;105016;1302;75661;-82
2022/07/08 09:43:23;;;;;;;;;;;;;;;27.55;38.73;100816.94;105114;1299;62057;-82
2022/07/08 09:45:49;;;;;;;;;;;;;;;27.55;38.81;100818.31;105158;1300;62051;-81
2022/07/08 09:48:15;;;;;;;;;;;;;;;27.54;38.74;100810.30;105193;1299;61952;-81
2022/07/08 09:50:44;;;;;;;;;;;;;;;27.53;38.79;100795.62;105181;1299;63201;-81
2022/07/08 09:53:13;;;;;;;;;;;;;;;27.55;38.88;100802.48;105138;1300;62054;-81
2022/07/08 09:55:40;;;;;;;;;;;;;;;27.45;38.04;100799.80;105096;1302;61946;-81
2022/07/08 09:58:06;;;;;;;;;;;;;;;27.40;38.14;100793.30;105056;1302;73908;-81
2022/07/08 10:00:33;;;;;;;;;;;;;;;27.41;38.10;100793.83;105009;1302;62150;-81
2022/07/08 10:03:00;;;;;;;;;;;;;;;27.44;38.28;100793.21;104969;1302;62067;-81
2022/07/08 10:05:25;;;;;;;;;;;;;;;27.41;37.71;100785.25;104953;1299;62102;-81
2022/07/08 10:07:51;;;;;;;;;;;;;;;27.40;37.98;100789.44;105068;1299;62186;-82
2022/07/08 10:10:16;;;;;;;;;;;;;;;27.45;37.98;100783.98;104979;1300;62379;-81
2022/07/08 10:12:42;;;;;;;;;;;;;;;27.49;38.22;100784.65;104967;1301;62093;-82
2022/07/08 10:15:08;;;;;;;;;;;;;;;27.52;38.20;100781.59;105176;1302;62288;-81
2022/07/08 10:17:34;;;;;;;;;;;;;;;27.56;38.50;100780.13;105089;1302;61934;-82
2022/07/08 10:20:00;;;;;;;;;;;;;;;27.59;38.48;100781.63;105125;1300;61938;-83
2022/07/08 10:22:25;;;;;;;;;;;;;;;27.62;38.22;100772.30;105092;1302;62191;-83
2022/07/08 10:24:51;;;;;;;;;;;;;;;27.65;38.62;100776.20;105071;1300;62039;-83
2022/07/08 10:27:17;;;;;;;;;;;;;;;27.67;38.45;100772.57;104975;1302;62042;-83
2022/07/08 10:29:42;;;;;;;;;;;;;;;27.69;38.63;100766.59;105141;1299;62516;-84
2022/07/08 10:32:25;;;;;;;;;;;;;;;27.70;38.56;100762.99;105060;1300;72787;-82
2022/07/08 10:35:10;;;;;;;;;;;;;;;27.72;38.80;100755.92;105150;1299;77756;-81
2022/07/08 10:37:48;;;;;;;;;;;;;;;27.74;38.64;100758.27;105146;1299;62645;-81
2022/07/08 10:40:34;;;;;;;;;;;;;;;27.74;38.93;100759.48;105118;1300;62052;-80
2022/07/08 10:43:19;;;;;;;;;;;;;;;27.75;38.61;100759.23;105129;1299;72777;-80
2022/07/08 10:45:57;;;;;;;;;;;;;;;27.76;38.68;100752.98;104956;1299;76762;-81
2022/07/08 10:48:27;;;;;;;;;;;;;;;27.78;38.76;100750.48;104989;1300;62759;-81
2022/07/08 10:50:52;;;;;;;;;;;;;;;27.79;38.76;100750.55;105034;1302;61947;-81
2022/07/08 10:53:17;;;;;;;;;;;;;;;27.80;38.54;100745.88;105071;1300;62087;-81
2022/07/08 10:55:43;;;;;;;;;;;;;;;27.82;38.96;100745.22;104805;1302;62061;-81
2022/07/08 10:58:08;;;;;;;;;;;;;;;27.83;38.98;100743.09;105059;1302;62089;-81
2022/07/08 11:00:36;;;;;;;;;;;;;;;27.84;38.96;100737.96;105006;1302;62152;-81
2022/07/08 11:03:03;;;;;;;;;;;;;;;27.84;38.95;100733.38;105225;1302;62206;-80
2022/07/08 11:05:35;;;;;;;;;;;;;;;27.86;38.90;100729.97;105052;1302;72622;-80
2022/07/08 11:08:26;;;;;;;;;;;;;;;27.86;38.76;100734.98;105126;1300;75459;-80
2022/07/08 11:10:52;;;;;;;;;;;;;;;27.86;39.26;100736.21;104970;1302;61914;-81
2022/07/08 11:13:22;;;;;;;;;;;;;;;27.87;39.12;100733.95;105006;1302;62039;-81
2022/07/08 11:15:47;;;;;;;;;;;;;;;27.88;39.14;100730.80;104988;1301;73845;-81
2022/07/08 11:18:20;;;;;;;;;;;;;;;27.89;38.93;100726.39;105042;1302;62209;-81
2022/07/08 11:20:45;;;;;;;;;;;;;;;27.90;39.17;100720.88;105019;1302;62268;-81
2022/07/08 11:23:10;;;;;;;;;;;;;;;27.90;39.31;100721.74;105076;1302;62180;-80
2022/07/08 11:25:36;;;;;;;;;;;;;;;27.90;39.08;100721.91;105182;1301;62084;-80
2022/07/08 11:28:02;;;;;;;;;;;;;;;27.91;39.14;100726.35;104937;1302;62068;-80
2022/07/08 11:30:28;;;;;;;;;;;;;;;27.91;39.08;100722.11;105067;1302;62090;-80
2022/07/08 11:32:55;;;;;;;;;;;;;;;27.92;39.22;100717.57;105069;1302;61896;-80
2022/07/08 11:35:21;;;;;;;;;;;;;;;27.92;39.04;100715.52;105040;1300;60829;-81
2022/07/08 11:37:47;;;;;;;;;;;;;;;27.93;39.12;100716.37;105068;1300;62052;-80
2022/07/08 11:40:13;;;;;;;;;;;;;;;27.93;38.96;100715.45;105093;1299;62075;-80
2022/07/08 11:42:39;;;;;;;;;;;;;;;27.94;39.25;100712.66;105090;1302;61969;-80
2022/07/08 11:45:05;;;;;;;;;;;;;;;27.94;39.13;100705.77;105146;1302;62125;-80
2022/07/08 11:47:31;;;;;;;;;;;;;;;27.95;39.12;100704.63;105061;1302;62262;-81
2022/07/08 11:49:56;;;;;;;;;;;;;;;27.95;39.06;100698.61;104986;1302;62157;-81
2022/07/08 11:52:22;;;;;;;;;;;;;;;27.96;38.91;100699.42;104998;1302;60800;-81
2022/07/08 11:54:48;;;;;;;;;;;;;;;27.96;39.09;100688.77;104871;1302;62058;-81
2022/07/08 11:57:13;;;;;;;;;;;;;;;27.97;39.16;100689.06;104972;1302;62054;-81
2022/07/08 11:59:39;;;;;;;;;;;;;;;27.97;39.21;100686.70;104999;1302;62323;-81
2022/07/08 12:02:04;;;;;;;;;;;;;;;27.98;39.02;100684.63;105035;1302;62106;-81
2022/07/08 12:04:30;;;;;;;;;;;;;;;27.99;39.13;100686.49;105134;1302;62177;-81
2022/07/08 12:06:56;;;;;;;;;;;;;;;27.99;39.00;100684.16;104785;1302;62814;-81
2022/07/08 12:09:22;;;;;;;;;;;;;;;28.00;39.21;100685.36;104974;1302;62050;-81
2022/07/08 12:11:51;;;;;;;;;;;;;;;28.00;39.20;100690.04;105058;1301;62088;-81
2022/07/08 12:14:17;;;;;;;;;;;;;;;28.00;39.03;100687.10;105098;1302;75460;-83
2022/07/08 12:16:42;;;;;;;;;;;;;;;28.01;39.10;100682.70;104890;1302;62072;-83
2022/07/08 12:19:23;;;;;;;;;;;;;;;28.02;38.93;100683.32;105118;1302;62181;-83
2022/07/08 12:21:49;;;;;;;;;;;;;;;28.02;39.21;100673.21;105083;1302;74947;-83
2022/07/08 12:24:15;;;;;;;;;;;;;;;28.02;39.25;100671.15;105141;1302;62128;-83
2022/07/08 12:27:01;;;;;;;;;;;;;;;28.03;39.34;100667.64;105186;1302;62094;-83